sensor_id;sensor_type;location;lat;lon;timestamp;pressure;altitude;pressure_sealevel;temperature;humidity
14204;BME280;7185;51.854;6.622;2022-07-09T00:00:28;102522.41;;;19.51;92.82
14204;BME280;7185;51.854;6.622;2022-07-09T00:03:00;102524.03;;;19.57;92.35
14204;BME280;7185;51.854;6.622;2022-07-09T00:05:31;102521.63;;;19.48;92.63
14204;BME280;7185;51.854;6.622;2022-07-09T00:08:03;102514.72;;;19.40;93.13
14204;BME280;7185;51.854;6.622;2022-07-09T00:10:35;102517.38;;;19.39;93.49
14204;BME280;7185;51.854;6.622;2022-07-09T00:13:07;102518.34;;;19.36;93.85
14204;BME280;7185;51.854;6.622;2022-07-09T00:15:40;102521.50;;;19.16;96.68
14204;BME280;7185;51.854;6.622;2022-07-09T00:18:13;102511.78;;;19.14;97.21
14204;BME280;7185;51.854;6.622;2022-07-09T00:20:44;102516.28;;;19.11;97.91
14204;BME280;7185;51.854;6.622;2022-07-09T00:23:16;102513.94;;;18.99;100.00
14204;BME280;7185;51.854;6.622;2022-07-09T00:25:48;102515.66;;;19.00;100.00
14204;BME280;7185;51.854;6.622;2022-07-09T00:28:19;102512.28;;;18.93;100.00
14204;BME280;7185;51.854;6.622;2022-07-09T00:30:53;102509.56;;;18.95;100.00
14204;BME280;7185;51.854;6.622;2022-07-09T00:33:24;102507.88;;;18.91;100.00
14204;BME280;7185;51.854;6.622;2022-07-09T00:35:56;102517.72;;;18.86;100.00
14204;BME280;7185;51.854;6.622;2022-07-09T00:38:28;102510.72;;;18.82;100.00
14204;BME280;7185;51.854;6.622;2022-07-09T00:41:00;102516.00;;;18.83;100.00
14204;BME280;7185;51.854;6.622;2022-07-09T00:43:31;102517.91;;;18.78;100.00
14204;BME280;7185;51.854;6.622;2022-07-09T00:46:05;102516.31;;;18.69;100.00
14204;BME280;7185;51.854;6.622;2022-07-09T00:48:36;102518.06;;;18.70;100.00
14204;BME280;7185;51.854;6.622;2022-07-09T00:51:08;102512.75;;;18.70;100.00
14204;BME280;7185;51.854;6.622;2022-07-09T00:53:44;102510.25;;;18.64;100.00
14204;BME280;7185;51.854;6.622;2022-07-09T00:56:16;102512.09;;;18.59;100.00
14204;BME280;7185;51.854;6.622;2022-07-09T00:58:49;102507.78;;;18.55;100.00
14204;BME280;7185;51.854;6.622;2022-07-09T01:01:23;102505.16;;;18.53;100.00
14204;BME280;7185;51.854;6.622;2022-07-09T01:03:54;102503.53;;;18.46;100.00
14204;BME280;7185;51.854;6.622;2022-07-09T01:06:26;102501.56;;;18.54;100.00
14204;BME280;7185;51.854;6.622;2022-07-09T01:08:58;102504.94;;;18.62;100.00
14204;BME280;7185;51.854;6.622;2022-07-09T01:11:30;102499.66;;;18.61;100.00
14204;BME280;7185;51.854;6.622;2022-07-09T01:14:01;102500.66;;;18.57;100.00
14204;BME280;7185;51.854;6.622;2022-07-09T01:16:35;102500.91;;;18.44;100.00
14204;BME280;7185;51.854;6.622;2022-07-09T01:19:08;102499.28;;;18.37;100.00
14204;BME280;7185;51.854;6.622;2022-07-09T01:21:41;102492.28;;;18.33;100.00
14204;BME280;7185;51.854;6.622;2022-07-09T01:24:13;102492.31;;;18.31;100.00
14204;BME280;7185;51.854;6.622;2022-07-09T01:26:44;102488.91;;;18.25;100.00
14204;BME280;7185;51.854;6.622;2022-07-09T01:29:16;102486.44;;;18.17;100.00
14204;BME280;7185;51.854;6.622;2022-07-09T01:31:48;102481.13;;;18.17;100.00
14204;BME280;7185;51.854;6.622;2022-07-09T01:34:19;102492.72;;;18.11;100.00
14204;BME280;7185;51.854;6.622;2022-07-09T01:36:52;102484.84;;;18.07;100.00
14204;BME280;7185;51.854;6.622;2022-07-09T01:39:27;102465.41;;;18.05;100.00
14204;BME280;7185;51.854;6.622;2022-07-09T01:41:59;102470.03;;;17.95;100.00
14204;BME280;7185;51.854;6.622;2022-07-09T01:44:30;102470.13;;;17.89;100.00
14204;BME280;7185;51.854;6.622;2022-07-09T01:47:02;102472.78;;;17.89;100.00
14204;BME280;7185;51.854;6.622;2022-07-09T01:49:34;102469.13;;;17.96;100.00
14204;BME280;7185;51.854;6.622;2022-07-09T01:52:07;102456.00;;;17.88;100.00
14204;BME280;7185;51.854;6.622;2022-07-09T01:54:39;102455.91;;;17.93;100.00
14204;BME280;7185;51.854;6.622;2022-07-09T01:57:11;102467.53;;;17.84;100.00
14204;BME280;7185;51.854;6.622;2022-07-09T01:59:42;102470.25;;;17.82;100.00
14204;BME280;7185;51.854;6.622;2022-07-09T02:02:14;102468.44;;;17.84;100.00
14204;BME280;7185;51.854;6.622;2022-07-09T02:04:46;102456.97;;;17.82;100.00
14204;BME280;7185;51.854;6.622;2022-07-09T02:07:19;102461.50;;;17.77;100.00
14204;BME280;7185;51.854;6.622;2022-07-09T02:09:51;102454.56;;;17.70;100.00
14204;BME280;7185;51.854;6.622;2022-07-09T02:12:22;102459.97;;;17.64;100.00
14204;BME280;7185;51.854;6.622;2022-07-09T02:14:54;102454.72;;;17.61;100.00
14204;BME280;7185;51.854;6.622;2022-07-09T02:17:26;102460.97;;;17.58;100.00
14204;BME280;7185;51.854;6.622;2022-07-09T02:19:57;102457.53;;;17.53;100.00
14204;BME280;7185;51.854;6.622;2022-07-09T02:22:30;102456.75;;;17.46;100.00
14204;BME280;7185;51.854;6.622;2022-07-09T02:25:02;102455.91;;;17.44;100.00
14204;BME280;7185;51.854;6.622;2022-07-09T02:27:34;102454.97;;;17.45;100.00
14204;BME280;7185;51.854;6.622;2022-07-09T02:30:07;102449.69;;;17.45;100.00
14204;BME280;7185;51.854;6.622;2022-07-09T02:32:39;102455.09;;;17.41;100.00
14204;BME280;7185;51.854;6.622;2022-07-09T02:35:10;102444.53;;;17.38;100.00
14204;BME280;7185;51.854;6.622;2022-07-09T02:37:43;102455.19;;;17.33;100.00
14204;BME280;7185;51.854;6.622;2022-07-09T02:40:15;102448.06;;;17.36;100.00
14204;BME280;7185;51.854;6.622;2022-07-09T02:42:47;102448.09;;;17.35;100.00
14204;BME280;7185;51.854;6.622;2022-07-09T02:45:18;102441.19;;;17.25;100.00
14204;BME280;7185;51.854;6.622;2022-07-09T02:47:50;102451.88;;;17.22;100.00
14204;BME280;7185;51.854;6.622;2022-07-09T02:50:22;102440.38;;;17.21;100.00
14204;BME280;7185;51.854;6.622;2022-07-09T02:52:55;102435.91;;;17.25;100.00
14204;BME280;7185;51.854;6.622;2022-07-09T02:55:27;102426.28;;;17.19;100.00
14204;BME280;7185;51.854;6.622;2022-07-09T02:57:58;102430.59;;;17.25;100.00
14204;BME280;7185;51.854;6.622;2022-07-09T03:00:30;102449.91;;;17.33;100.00
14204;BME280;7185;51.854;6.622;2022-07-09T03:03:01;102450.03;;;17.24;100.00
14204;BME280;7185;51.854;6.622;2022-07-09T03:05:33;102434.09;;;17.27;100.00
14204;BME280;7185;51.854;6.622;2022-07-09T03:08:06;102442.84;;;17.32;100.00
14204;BME280;7185;51.854;6.622;2022-07-09T03:10:38;102428.84;;;17.24;100.00
14204;BME280;7185;51.854;6.622;2022-07-09T03:13:10;102418.44;;;17.11;100.00
14204;BME280;7185;51.854;6.622;2022-07-09T03:15:42;102414.03;;;17.12;100.00
14204;BME280;7185;51.854;6.622;2022-07-09T03:18:14;102427.19;;;17.16;100.00
14204;BME280;7185;51.854;6.622;2022-07-09T03:20:47;102436.84;;;17.20;100.00
14204;BME280;7185;51.854;6.622;2022-07-09T03:23:21;102445.78;;;17.15;100.00
14204;BME280;7185;51.854;6.622;2022-07-09T03:25:52;102455.44;;;17.17;100.00
14204;BME280;7185;51.854;6.622;2022-07-09T03:28:24;102458.16;;;17.14;100.00
14204;BME280;7185;51.854;6.622;2022-07-09T03:30:56;102446.56;;;17.20;100.00
14204;BME280;7185;51.854;6.622;2022-07-09T03:33:28;102450.25;;;17.11;100.00
14204;BME280;7185;51.854;6.622;2022-07-09T03:35:59;102450.19;;;17.16;100.00
14204;BME280;7185;51.854;6.622;2022-07-09T03:38:33;102459.09;;;17.10;100.00
14204;BME280;7185;51.854;6.622;2022-07-09T03:41:04;102458.25;;;17.10;100.00
14204;BME280;7185;51.854;6.622;2022-07-09T03:43:36;102457.16;;;17.22;100.00
14204;BME280;7185;51.854;6.622;2022-07-09T03:46:08;102457.28;;;17.15;100.00
14204;BME280;7185;51.854;6.622;2022-07-09T03:48:39;102459.06;;;17.13;100.00
14204;BME280;7185;51.854;6.622;2022-07-09T03:51:11;102451.97;;;17.14;100.00
14204;BME280;7185;51.854;6.622;2022-07-09T03:53:44;102460.66;;;17.24;100.00
14204;BME280;7185;51.854;6.622;2022-07-09T03:56:16;102460.75;;;17.17;100.00
14204;BME280;7185;51.854;6.622;2022-07-09T03:58:50;102451.00;;;17.19;100.00
14204;BME280;7185;51.854;6.622;2022-07-09T04:01:22;102449.22;;;17.20;100.00
14204;BME280;7185;51.854;6.622;2022-07-09T04:03:53;102453.56;;;17.26;100.00
14204;BME280;7185;51.854;6.622;2022-07-09T04:06:25;102451.88;;;17.22;100.00
14204;BME280;7185;51.854;6.622;2022-07-09T04:08:58;102439.38;;;17.30;100.00
14204;BME280;7185;51.854;6.622;2022-07-09T04:11:34;102439.50;;;17.20;100.00
14204;BME280;7185;51.854;6.622;2022-07-09T04:14:06;102432.25;;;17.32;100.00
14204;BME280;7185;51.854;6.622;2022-07-09T04:16:37;102441.72;;;17.47;100.00
14204;BME280;7185;51.854;6.622;2022-07-09T04:19:09;102460.31;;;17.44;100.00
14204;BME280;7185;51.854;6.622;2022-07-09T04:21:41;102459.47;;;17.42;100.00
14204;BME280;7185;51.854;6.622;2022-07-09T04:24:14;102454.22;;;17.39;100.00
14204;BME280;7185;51.854;6.622;2022-07-09T04:26:46;102449.72;;;17.44;100.00
14204;BME280;7185;51.854;6.622;2022-07-09T04:29:17;102458.56;;;17.44;100.00
14204;BME280;7185;51.854;6.622;2022-07-09T04:31:49;102458.38;;;17.53;100.00
14204;BME280;7185;51.854;6.622;2022-07-09T04:34:20;102443.47;;;17.48;100.00
14204;BME280;7185;51.854;6.622;2022-07-09T04:36:52;102452.84;;;17.66;100.00
14204;BME280;7185;51.854;6.622;2022-07-09T04:39:25;102449.28;;;17.67;100.00
14204;BME280;7185;51.854;6.622;2022-07-09T04:41:57;102458.97;;;17.71;100.00
14204;BME280;7185;51.854;6.622;2022-07-09T04:44:29;102450.94;;;17.74;100.00
14204;BME280;7185;51.854;6.622;2022-07-09T04:47:01;102455.16;;;17.84;100.00
14204;BME280;7185;51.854;6.622;2022-07-09T04:49:33;102451.75;;;17.79;100.00
14204;BME280;7185;51.854;6.622;2022-07-09T04:52:05;102451.97;;;17.65;100.00
14204;BME280;7185;51.854;6.622;2022-07-09T04:54:38;102445.75;;;17.68;100.00
14204;BME280;7185;51.854;6.622;2022-07-09T04:57:10;102441.22;;;17.73;100.00
14204;BME280;7185;51.854;6.622;2022-07-09T04:59:42;102437.38;;;17.90;100.00
14204;BME280;7185;51.854;6.622;2022-07-09T05:02:14;102436.56;;;17.86;100.00
14204;BME280;7185;51.854;6.622;2022-07-09T05:04:45;102438.06;;;18.01;100.00
14204;BME280;7185;51.854;6.622;2022-07-09T05:07:17;102438.81;;;18.08;100.00
14204;BME280;7185;51.854;6.622;2022-07-09T05:09:50;102435.94;;;18.19;100.00
14204;BME280;7185;51.854;6.622;2022-07-09T05:12:22;102430.63;;;18.19;100.00
14204;BME280;7185;51.854;6.622;2022-07-09T05:14:54;102433.81;;;18.35;100.00
14204;BME280;7185;51.854;6.622;2022-07-09T05:17:26;102427.00;;;18.23;100.00
14204;BME280;7185;51.854;6.622;2022-07-09T05:19:58;102425.19;;;18.25;100.00
14204;BME280;7185;51.854;6.622;2022-07-09T05:22:30;102427.94;;;18.22;100.00
14204;BME280;7185;51.854;6.622;2022-07-09T05:25:04;102424.88;;;18.40;100.00
14204;BME280;7185;51.854;6.622;2022-07-09T05:27:44;102428.47;;;18.36;100.00
14204;BME280;7185;51.854;6.622;2022-07-09T05:30:15;102432.78;;;18.42;100.00
14204;BME280;7185;51.854;6.622;2022-07-09T05:32:48;102427.94;;;18.61;100.00
14204;BME280;7185;51.854;6.622;2022-07-09T05:35:19;102425.34;;;18.59;100.00
14204;BME280;7185;51.854;6.622;2022-07-09T05:37:51;102427.09;;;18.59;100.00
14204;BME280;7185;51.854;6.622;2022-07-09T05:40:27;102436.75;;;18.63;100.00
14204;BME280;7185;51.854;6.622;2022-07-09T05:42:59;102421.03;;;18.54;100.00
14204;BME280;7185;51.854;6.622;2022-07-09T05:45:30;102419.47;;;18.45;100.00
14204;BME280;7185;51.854;6.622;2022-07-09T05:48:02;102415.72;;;18.54;100.00
14204;BME280;7185;51.854;6.622;2022-07-09T05:50:34;102420.72;;;18.66;100.00
14204;BME280;7185;51.854;6.622;2022-07-09T05:53:06;102419.31;;;18.89;100.00
14204;BME280;7185;51.854;6.622;2022-07-09T05:55:39;102418.34;;;18.93;100.00
14204;BME280;7185;51.854;6.622;2022-07-09T05:58:11;102411.31;;;18.92;100.00
14204;BME280;7185;51.854;6.622;2022-07-09T06:00:43;102413.16;;;18.87;100.00
14204;BME280;7185;51.854;6.622;2022-07-09T06:03:14;102415.69;;;18.93;100.00
14204;BME280;7185;51.854;6.622;2022-07-09T06:05:46;102415.94;;;19.20;100.00
14204;BME280;7185;51.854;6.622;2022-07-09T06:08:18;102415.56;;;19.34;100.00
14204;BME280;7185;51.854;6.622;2022-07-09T06:10:51;102421.44;;;19.47;100.00
14204;BME280;7185;51.854;6.622;2022-07-09T06:13:22;102424.97;;;19.47;100.00
14204;BME280;7185;51.854;6.622;2022-07-09T06:15:54;102416.97;;;19.49;100.00
14204;BME280;7185;51.854;6.622;2022-07-09T06:18:26;102413.13;;;19.59;100.00
14204;BME280;7185;51.854;6.622;2022-07-09T06:20:57;102423.59;;;19.65;100.00
14204;BME280;7185;51.854;6.622;2022-07-09T06:23:31;102419.97;;;19.69;100.00
14204;BME280;7185;51.854;6.622;2022-07-09T06:26:04;102427.78;;;19.74;100.00
14204;BME280;7185;51.854;6.622;2022-07-09T06:28:36;102427.00;;;19.70;100.00
14204;BME280;7185;51.854;6.622;2022-07-09T06:31:08;102423.53;;;19.67;100.00
14204;BME280;7185;51.854;6.622;2022-07-09T06:33:39;102432.25;;;19.73;100.00
14204;BME280;7185;51.854;6.622;2022-07-09T06:36:11;102424.88;;;19.83;100.00
14204;BME280;7185;51.854;6.622;2022-07-09T06:38:43;102433.91;;;19.78;100.00
14204;BME280;7185;51.854;6.622;2022-07-09T06:41:32;102428.47;;;19.84;100.00
14204;BME280;7185;51.854;6.622;2022-07-09T06:44:04;102431.06;;;19.85;100.00
14204;BME280;7185;51.854;6.622;2022-07-09T06:46:35;102432.19;;;19.75;100.00
14204;BME280;7185;51.854;6.622;2022-07-09T06:49:08;102430.72;;;19.98;100.00
14204;BME280;7185;51.854;6.622;2022-07-09T06:51:40;102438.13;;;20.18;100.00
14204;BME280;7185;51.854;6.622;2022-07-09T06:54:11;102441.88;;;20.41;100.00
14204;BME280;7185;51.854;6.622;2022-07-09T06:56:44;102440.16;;;20.40;100.00
14204;BME280;7185;51.854;6.622;2022-07-09T06:59:16;102425.81;;;20.74;100.00
14204;BME280;7185;51.854;6.622;2022-07-09T07:01:49;102416.38;;;20.90;100.00
14204;BME280;7185;51.854;6.622;2022-07-09T07:04:20;102422.75;;;20.86;98.11
14204;BME280;7185;51.854;6.622;2022-07-09T07:06:52;102416.84;;;21.03;95.96
14204;BME280;7185;51.854;6.622;2022-07-09T07:09:26;102419.09;;;21.15;92.00
14204;BME280;7185;51.854;6.622;2022-07-09T07:12:00;102423.50;;;21.16;88.50
14204;BME280;7185;51.854;6.622;2022-07-09T07:14:32;102429.84;;;21.39;86.12
14204;BME280;7185;51.854;6.622;2022-07-09T07:17:04;102427.78;;;21.47;81.94
14204;BME280;7185;51.854;6.622;2022-07-09T07:19:35;102431.38;;;21.46;81.24
14204;BME280;7185;51.854;6.622;2022-07-09T07:22:07;102432.84;;;21.55;80.81
14204;BME280;7185;51.854;6.622;2022-07-09T07:24:39;102430.66;;;21.68;79.21
14204;BME280;7185;51.854;6.622;2022-07-09T07:27:20;102422.72;;;21.67;79.27
14204;BME280;7185;51.854;6.622;2022-07-09T07:29:52;102423.44;;;21.45;79.31
14204;BME280;7185;51.854;6.622;2022-07-09T07:32:24;102418.41;;;21.36;80.28
14204;BME280;7185;51.854;6.622;2022-07-09T07:34:55;102417.88;;;21.51;80.60
14204;BME280;7185;51.854;6.622;2022-07-09T07:37:27;102408.53;;;21.64;78.98
14204;BME280;7185;51.854;6.622;2022-07-09T07:39:59;102411.38;;;21.60;79.79
14204;BME280;7185;51.854;6.622;2022-07-09T07:42:32;102407.13;;;21.53;79.35
14204;BME280;7185;51.854;6.622;2022-07-09T07:45:04;102402.56;;;21.56;80.78
14204;BME280;7185;51.854;6.622;2022-07-09T07:47:36;102403.63;;;21.52;81.65
14204;BME280;7185;51.854;6.622;2022-07-09T07:50:09;102400.44;;;21.41;78.81
14204;BME280;7185;51.854;6.622;2022-07-09T07:52:40;102400.22;;;21.72;79.53
14204;BME280;7185;51.854;6.622;2022-07-09T07:55:12;102397.16;;;21.83;76.44
14204;BME280;7185;51.854;6.622;2022-07-09T07:57:45;102408.78;;;22.06;76.75
14204;BME280;7185;51.854;6.622;2022-07-09T08:00:17;102397.22;;;22.29;72.99
14204;BME280;7185;51.854;6.622;2022-07-09T08:02:49;102396.22;;;22.55;73.10
14204;BME280;7185;51.854;6.622;2022-07-09T08:05:21;102394.97;;;22.42;71.27
14204;BME280;7185;51.854;6.622;2022-07-09T08:07:53;102386.19;;;22.60;71.06
14204;BME280;7185;51.854;6.622;2022-07-09T08:10:24;102381.63;;;22.85;70.93
14204;BME280;7185;51.854;6.622;2022-07-09T08:12:58;102384.75;;;22.74;71.22
14204;BME280;7185;51.854;6.622;2022-07-09T08:15:29;102377.44;;;22.79;72.86
14204;BME280;7185;51.854;6.622;2022-07-09T08:18:01;102382.34;;;22.68;68.98
14204;BME280;7185;51.854;6.622;2022-07-09T08:20:33;102372.50;;;22.90;69.77
14204;BME280;7185;51.854;6.622;2022-07-09T08:23:06;102371.03;;;23.04;68.91
14204;BME280;7185;51.854;6.622;2022-07-09T08:25:38;102363.00;;;23.04;69.06
14204;BME280;7185;51.854;6.622;2022-07-09T08:28:12;102358.31;;;23.31;67.91
14204;BME280;7185;51.854;6.622;2022-07-09T08:30:44;102358.34;;;23.50;67.84
14204;BME280;7185;51.854;6.622;2022-07-09T08:33:15;102351.25;;;23.49;65.72
14204;BME280;7185;51.854;6.622;2022-07-09T08:35:47;102346.09;;;23.84;65.47
14204;BME280;7185;51.854;6.622;2022-07-09T08:38:19;102343.03;;;23.92;65.22
14204;BME280;7185;51.854;6.622;2022-07-09T08:40:50;102342.81;;;23.38;67.14
14204;BME280;7185;51.854;6.622;2022-07-09T08:43:24;102346.78;;;23.69;66.22
14204;BME280;7185;51.854;6.622;2022-07-09T08:45:57;102347.53;;;23.73;65.75
14204;BME280;7185;51.854;6.622;2022-07-09T08:48:32;102343.94;;;23.93;66.06
14204;BME280;7185;51.854;6.622;2022-07-09T08:51:04;102349.53;;;23.86;63.01
14204;BME280;7185;51.854;6.622;2022-07-09T08:53:39;102356.00;;;23.82;63.93
14204;BME280;7185;51.854;6.622;2022-07-09T08:56:12;102361.25;;;23.65;65.10
14204;BME280;7185;51.854;6.622;2022-07-09T08:58:45;102350.00;;;23.77;64.08
14204;BME280;7185;51.854;6.622;2022-07-09T09:01:17;102352.34;;;24.04;64.31
14204;BME280;7185;51.854;6.622;2022-07-09T09:03:48;102341.75;;;24.01;64.11
14204;BME280;7185;51.854;6.622;2022-07-09T09:06:21;102343.06;;;24.11;63.15
14204;BME280;7185;51.854;6.622;2022-07-09T09:08:54;102343.03;;;24.30;63.47
14204;BME280;7185;51.854;6.622;2022-07-09T09:11:26;102340.31;;;24.13;64.84
14204;BME280;7185;51.854;6.622;2022-07-09T09:14:00;102336.81;;;24.30;63.81
14204;BME280;7185;51.854;6.622;2022-07-09T09:16:41;102332.38;;;24.29;63.06
14204;BME280;7185;51.854;6.622;2022-07-09T09:19:13;102332.53;;;24.26;62.57
14204;BME280;7185;51.854;6.622;2022-07-09T09:21:51;102332.34;;;24.11;63.38
14204;BME280;7185;51.854;6.622;2022-07-09T09:24:25;102325.47;;;24.06;63.91
14204;BME280;7185;51.854;6.622;2022-07-09T09:26:57;102331.59;;;24.27;63.67
14204;BME280;7185;51.854;6.622;2022-07-09T09:29:31;102332.94;;;23.99;64.35
14204;BME280;7185;51.854;6.622;2022-07-09T09:32:08;102325.00;;;24.34;63.50
14204;BME280;7185;51.854;6.622;2022-07-09T09:34:40;102328.53;;;24.34;62.99
14204;BME280;7185;51.854;6.622;2022-07-09T09:37:27;102322.91;;;24.22;63.54
14204;BME280;7185;51.854;6.622;2022-07-09T09:40:08;102322.91;;;24.22;63.13
14204;BME280;7185;51.854;6.622;2022-07-09T09:42:40;102324.34;;;24.29;64.33
14204;BME280;7185;51.854;6.622;2022-07-09T09:45:15;102319.88;;;24.47;63.69
14204;BME280;7185;51.854;6.622;2022-07-09T09:47:48;102328.81;;;24.47;63.59
14204;BME280;7185;51.854;6.622;2022-07-09T09:50:22;102316.44;;;24.45;62.57
14204;BME280;7185;51.854;6.622;2022-07-09T09:52:54;102324.69;;;24.58;62.72
14204;BME280;7185;51.854;6.622;2022-07-09T09:55:26;102315.28;;;24.68;62.64
14204;BME280;7185;51.854;6.622;2022-07-09T09:57:58;102312.38;;;24.73;63.29
14204;BME280;7185;51.854;6.622;2022-07-09T10:00:31;102313.03;;;24.59;63.83
14204;BME280;7185;51.854;6.622;2022-07-09T10:03:03;102310.53;;;24.56;62.61
14204;BME280;7185;51.854;6.622;2022-07-09T10:05:35;102325.25;;;24.84;63.46
14204;BME280;7185;51.854;6.622;2022-07-09T10:08:07;102316.09;;;24.88;61.94
14204;BME280;7185;51.854;6.622;2022-07-09T10:10:38;102309.84;;;24.70;62.60
14204;BME280;7185;51.854;6.622;2022-07-09T10:13:20;102313.56;;;24.67;63.41
14204;BME280;7185;51.854;6.622;2022-07-09T10:15:55;102307.19;;;24.50;62.56
14204;BME280;7185;51.854;6.622;2022-07-09T10:18:26;102314.94;;;24.20;63.36
14204;BME280;7185;51.854;6.622;2022-07-09T10:20:58;102304.59;;;24.49;63.37
14204;BME280;7185;51.854;6.622;2022-07-09T10:23:29;102299.50;;;24.62;62.91
14204;BME280;7185;51.854;6.622;2022-07-09T10:26:01;102297.47;;;24.67;62.29
14204;BME280;7185;51.854;6.622;2022-07-09T10:28:40;102296.00;;;24.60;63.51
14204;BME280;7185;51.854;6.622;2022-07-09T10:31:18;102292.00;;;24.69;62.61
14204;BME280;7185;51.854;6.622;2022-07-09T10:34:04;102286.31;;;24.57;62.84
14204;BME280;7185;51.854;6.622;2022-07-09T10:36:39;102292.16;;;24.65;63.66
14204;BME280;7185;51.854;6.622;2022-07-09T10:39:12;102288.75;;;24.62;63.65
14204;BME280;7185;51.854;6.622;2022-07-09T10:41:43;102284.94;;;24.31;63.76
14204;BME280;7185;51.854;6.622;2022-07-09T10:44:26;102291.75;;;24.19;64.00
14204;BME280;7185;51.854;6.622;2022-07-09T10:46:59;102287.59;;;24.13;65.11
14204;BME280;7185;51.854;6.622;2022-07-09T10:49:34;102284.63;;;24.19;65.07
14204;BME280;7185;51.854;6.622;2022-07-09T10:52:06;102291.34;;;24.09;65.22
14204;BME280;7185;51.854;6.622;2022-07-09T10:54:45;102287.00;;;23.68;67.66
14204;BME280;7185;51.854;6.622;2022-07-09T10:57:17;102303.94;;;23.69;68.53
14204;BME280;7185;51.854;6.622;2022-07-09T10:59:49;102299.16;;;23.57;73.67
14204;BME280;7185;51.854;6.622;2022-07-09T11:02:22;102283.47;;;23.68;76.40
14204;BME280;7185;51.854;6.622;2022-07-09T11:04:54;102276.88;;;24.13;76.73
14204;BME280;7185;51.854;6.622;2022-07-09T11:07:26;102282.94;;;24.71;72.53
14204;BME280;7185;51.854;6.622;2022-07-09T11:09:58;102274.41;;;24.98;67.17
14204;BME280;7185;51.854;6.622;2022-07-09T11:12:30;102272.13;;;25.41;66.15
14204;BME280;7185;51.854;6.622;2022-07-09T11:15:02;102259.59;;;25.58;64.15
14204;BME280;7185;51.854;6.622;2022-07-09T11:17:35;102260.53;;;25.73;62.42
14204;BME280;7185;51.854;6.622;2022-07-09T11:20:07;102260.78;;;26.00;63.29
14204;BME280;7185;51.854;6.622;2022-07-09T11:22:46;102270.50;;;26.03;62.69
14204;BME280;7185;51.854;6.622;2022-07-09T11:25:18;102270.94;;;25.95;61.09
14204;BME280;7185;51.854;6.622;2022-07-09T11:27:50;102289.47;;;25.84;62.48
14204;BME280;7185;51.854;6.622;2022-07-09T11:30:22;102293.44;;;25.44;63.87
14204;BME280;7185;51.854;6.622;2022-07-09T11:32:55;102283.09;;;25.03;65.58
14204;BME280;7185;51.854;6.622;2022-07-09T11:35:28;102293.44;;;24.93;67.62
14204;BME280;7185;51.854;6.622;2022-07-09T11:38:01;102289.56;;;24.81;67.44
14204;BME280;7185;51.854;6.622;2022-07-09T11:40:33;102287.91;;;24.96;68.14
14204;BME280;7185;51.854;6.622;2022-07-09T11:43:12;102292.00;;;25.37;67.05
14204;BME280;7185;51.854;6.622;2022-07-09T11:45:51;102280.91;;;25.27;66.69
14204;BME280;7185;51.854;6.622;2022-07-09T11:48:25;102272.59;;;26.14;67.45
14204;BME280;7185;51.854;6.622;2022-07-09T11:50:56;102268.63;;;26.66;61.28
14204;BME280;7185;51.854;6.622;2022-07-09T11:53:28;102265.94;;;26.96;60.51
14204;BME280;7185;51.854;6.622;2022-07-09T11:56:00;102261.34;;;27.13;60.27
14204;BME280;7185;51.854;6.622;2022-07-09T11:58:32;102258.25;;;27.19;57.64
14204;BME280;7185;51.854;6.622;2022-07-09T12:01:09;102265.47;;;27.04;57.38
14204;BME280;7185;51.854;6.622;2022-07-09T12:03:47;102272.84;;;26.86;56.03
14204;BME280;7185;51.854;6.622;2022-07-09T12:06:19;102266.44;;;26.58;56.22
14204;BME280;7185;51.854;6.622;2022-07-09T12:08:58;102272.94;;;26.54;57.50
14204;BME280;7185;51.854;6.622;2022-07-09T12:11:30;102270.25;;;26.54;54.61
14204;BME280;7185;51.854;6.622;2022-07-09T12:14:02;102273.13;;;26.51;54.99
14204;BME280;7185;51.854;6.622;2022-07-09T12:16:34;102270.28;;;26.68;55.24
14204;BME280;7185;51.854;6.622;2022-07-09T12:19:07;102265.75;;;26.54;53.60
14204;BME280;7185;51.854;6.622;2022-07-09T12:21:38;102271.56;;;26.47;54.02
14204;BME280;7185;51.854;6.622;2022-07-09T12:24:10;102272.50;;;26.31;54.21
14204;BME280;7185;51.854;6.622;2022-07-09T12:26:42;102280.28;;;26.04;55.36
14204;BME280;7185;51.854;6.622;2022-07-09T12:29:13;102280.81;;;25.47;56.55
14204;BME280;7185;51.854;6.622;2022-07-09T12:31:45;102278.22;;;25.93;57.51
14204;BME280;7185;51.854;6.622;2022-07-09T12:34:18;102271.19;;;26.06;55.35
14204;BME280;7185;51.854;6.622;2022-07-09T12:36:50;102263.63;;;26.29;53.84
14204;BME280;7185;51.854;6.622;2022-07-09T12:39:21;102267.53;;;26.54;52.93
14204;BME280;7185;51.854;6.622;2022-07-09T12:41:53;102254.34;;;26.65;51.46
14204;BME280;7185;51.854;6.622;2022-07-09T12:44:25;102246.72;;;26.57;51.52
14204;BME280;7185;51.854;6.622;2022-07-09T12:46:57;102251.47;;;26.38;51.10
14204;BME280;7185;51.854;6.622;2022-07-09T12:49:30;102262.59;;;26.32;52.18
14204;BME280;7185;51.854;6.622;2022-07-09T12:52:02;102253.56;;;26.33;50.96
14204;BME280;7185;51.854;6.622;2022-07-09T12:54:33;102268.03;;;26.77;50.08
14204;BME280;7185;51.854;6.622;2022-07-09T12:57:05;102260.09;;;26.59;50.22
14204;BME280;7185;51.854;6.622;2022-07-09T12:59:37;102262.69;;;26.61;51.95
14204;BME280;7185;51.854;6.622;2022-07-09T13:02:08;102256.25;;;26.63;50.41
14204;BME280;7185;51.854;6.622;2022-07-09T13:04:42;102256.63;;;26.57;49.80
14204;BME280;7185;51.854;6.622;2022-07-09T13:07:14;102257.75;;;26.83;48.94
14204;BME280;7185;51.854;6.622;2022-07-09T13:09:46;102243.81;;;26.91;48.03
14204;BME280;7185;51.854;6.622;2022-07-09T13:12:17;102248.25;;;27.35;47.46
14204;BME280;7185;51.854;6.622;2022-07-09T13:14:49;102250.56;;;27.27;46.92
14204;BME280;7185;51.854;6.622;2022-07-09T13:17:20;102243.66;;;27.38;46.86
14204;BME280;7185;51.854;6.622;2022-07-09T13:19:53;102250.66;;;27.26;46.37
14204;BME280;7185;51.854;6.622;2022-07-09T13:22:25;102245.56;;;26.92;47.54